Etusivu
METAR-TAF:

METAR-TAF

Lentoasemat :

South Bend Regional Airport

South Bend, Indiana, Yhdysvallat

Leveyspiiri: 41-42-32N, Pituuspiiri: 086-19-07W, korkeus merenpinnasta: 244 m

Tämänhetkinen sää

Tämä raportti tehtiin 11 minuuttia sitten, kello 10.54 UTC
Tuuli 4 kn idästä/koillisesta
Lämpötila 12°C
Kosteus 94%
Ilmanpaine 1026 hPa
Näkyvyys: 16.1 km
selkeää

METAR: KSBN 241054Z 06004KT 10SM CLR 12/11 A3030 RMK AO2 SLP260 T01220106

Aika: 07:05 (11:05 UTC)

Sääennuste

Tämä raportti tehtiin 5 tuntia ja 45 minuuttia sitten, kello 05.20 UTC
Ennuste voimassa 24. päivästä klo 06 UTC - 25. päivään klo 06 UTC
Tuuli 4 kn pohjoisesta/koillisesta
Näkyvyys: 10 km
selkeää
From 24. päivästä klo 1500 UTC
Tuuli 10 kn idästä/koillisesta
Näkyvyys: 10 km
Muutamia pilviä 5000 ft:n korkeudessa

TAF: KSBN 240520Z 2406/2506 03004KT P6SM SKC FM241500 07010KT P6SM FEW050

Säähavainnot ja -ennusteet yli 4000 lentoasemalta (METAR- ja TAF-raportit).

Käytössä olevat sääasemat on merkitty karttaan keltaisilla ja punaisilla pisteillä.

Aseta hiiri pisteen päälle nähdäksesi sääaseman nimen.

Klikkaa sitten nähdäksesi säähavainnot ja -ennusteet.

Kartan vaihtaminen: klikkaa mustalla rastilla varustettuja vihreitä pisteitä, niin voit zoomata sisään; viivalla varustettua vihreää pistettä, niin voit zoomata ulos tai vihreitä nuolia, niin pääset viereisille kartoille.


METAR-TAF: